sensor_id;sensor_type;location;lat;lon;timestamp;pressure;altitude;pressure_sealevel;temperature;humidity
62895;BME280;49204;44.916;37.998;2023-02-18T00:00:25;101583.56;;;6.73;71.09
62895;BME280;49204;44.916;37.998;2023-02-18T00:02:53;101578.33;;;6.73;71.06
62895;BME280;49204;44.916;37.998;2023-02-18T00:05:21;101582.23;;;6.76;71.08
62895;BME280;49204;44.916;37.998;2023-02-18T00:07:49;101587.02;;;6.78;71.23
62895;BME280;49204;44.916;37.998;2023-02-18T00:10:17;101580.01;;;6.80;71.12
62895;BME280;49204;44.916;37.998;2023-02-18T00:12:45;101586.53;;;6.83;71.01
62895;BME280;49204;44.916;37.998;2023-02-18T00:15:12;101587.39;;;6.84;70.95
62895;BME280;49204;44.916;37.998;2023-02-18T00:17:40;101586.53;;;6.83;70.89
62895;BME280;49204;44.916;37.998;2023-02-18T00:20:08;101600.48;;;6.82;70.87
62895;BME280;49204;44.916;37.998;2023-02-18T00:22:36;101598.77;;;6.81;70.85
62895;BME280;49204;44.916;37.998;2023-02-18T00:25:04;101606.23;;;6.77;70.85
62895;BME280;49204;44.916;37.998;2023-02-18T00:27:32;101597.55;;;6.72;70.95
62895;BME280;49204;44.916;37.998;2023-02-18T00:30:00;101601.10;;;6.65;70.97
62895;BME280;49204;44.916;37.998;2023-02-18T00:32:29;101606.83;;;6.56;71.01
62895;BME280;49204;44.916;37.998;2023-02-18T00:34:59;101596.86;;;6.51;71.01
62895;BME280;49204;44.916;37.998;2023-02-18T00:37:26;101603.47;;;6.44;71.09
62895;BME280;49204;44.916;37.998;2023-02-18T00:39:54;101599.13;;;6.38;71.15
62895;BME280;49204;44.916;37.998;2023-02-18T00:42:22;101600.48;;;6.33;71.19
62895;BME280;49204;44.916;37.998;2023-02-18T00:44:49;101594.41;;;6.31;71.33
62895;BME280;49204;44.916;37.998;2023-02-18T00:47:17;101595.72;;;6.30;71.34
62895;BME280;49204;44.916;37.998;2023-02-18T00:49:45;101590.50;;;6.27;71.38
62895;BME280;49204;44.916;37.998;2023-02-18T00:52:13;101593.13;;;6.25;71.32
62895;BME280;49204;44.916;37.998;2023-02-18T00:54:41;101588.34;;;6.23;71.37
62895;BME280;49204;44.916;37.998;2023-02-18T00:57:09;101587.08;;;6.22;71.36
62895;BME280;49204;44.916;37.998;2023-02-18T00:59:37;101589.25;;;6.21;71.39
62895;BME280;49204;44.916;37.998;2023-02-18T01:02:05;101591.41;;;6.21;71.36
62895;BME280;49204;44.916;37.998;2023-02-18T01:04:33;101586.63;;;6.21;71.36
62895;BME280;49204;44.916;37.998;2023-02-18T01:07:01;101590.55;;;6.21;71.28
62895;BME280;49204;44.916;37.998;2023-02-18T01:09:28;101584.88;;;6.19;71.29
62895;BME280;49204;44.916;37.998;2023-02-18T01:11:56;101590.55;;;6.21;71.29
62895;BME280;49204;44.916;37.998;2023-02-18T01:14:24;101598.40;;;6.21;71.27
62895;BME280;49204;44.916;37.998;2023-02-18T01:16:51;101597.95;;;6.19;71.21
62895;BME280;49204;44.916;37.998;2023-02-18T01:19:19;101592.31;;;6.20;71.19
62895;BME280;49204;44.916;37.998;2023-02-18T01:21:47;101591.01;;;6.18;71.20
62895;BME280;49204;44.916;37.998;2023-02-18T01:24:14;101599.72;;;6.19;71.23
62895;BME280;49204;44.916;37.998;2023-02-18T01:26:42;101590.56;;;6.17;71.24
62895;BME280;49204;44.916;37.998;2023-02-18T01:29:10;101598.00;;;6.16;71.19
62895;BME280;49204;44.916;37.998;2023-02-18T01:31:39;101594.48;;;6.17;71.17
62895;BME280;49204;44.916;37.998;2023-02-18T01:34:07;101590.16;;;6.18;71.13
62895;BME280;49204;44.916;37.998;2023-02-18T01:36:35;101595.80;;;6.17;71.12
62895;BME280;49204;44.916;37.998;2023-02-18T01:39:03;101593.19;;;6.16;71.07
62895;BME280;49204;44.916;37.998;2023-02-18T01:41:31;101595.39;;;6.13;71.05
62895;BME280;49204;44.916;37.998;2023-02-18T01:44:10;101586.70;;;6.11;71.08
62895;BME280;49204;44.916;37.998;2023-02-18T01:46:37;101598.02;;;6.12;71.03
62895;BME280;49204;44.916;37.998;2023-02-18T01:49:05;101600.22;;;6.11;71.00
62895;BME280;49204;44.916;37.998;2023-02-18T01:51:38;101599.33;;;6.10;70.98
62895;BME280;49204;44.916;37.998;2023-02-18T01:56:37;101596.75;;;6.09;70.91
62895;BME280;49204;44.916;37.998;2023-02-18T01:59:12;101594.14;;;6.07;70.87
62895;BME280;49204;44.916;37.998;2023-02-18T02:01:40;101598.52;;;6.05;70.84
62895;BME280;49204;44.916;37.998;2023-02-18T02:04:09;101602.00;;;6.04;70.79
62895;BME280;49204;44.916;37.998;2023-02-18T02:06:37;101607.22;;;6.04;70.71
62895;BME280;49204;44.916;37.998;2023-02-18T02:09:06;101608.12;;;6.02;70.62
62895;BME280;49204;44.916;37.998;2023-02-18T02:11:39;101602.45;;;5.99;70.59
62895;BME280;49204;44.916;37.998;2023-02-18T02:14:12;101602.04;;;5.99;70.57
62895;BME280;49204;44.916;37.998;2023-02-18T02:16:49;101606.42;;;5.96;70.48
62895;BME280;49204;44.916;37.998;2023-02-18T02:19:27;101605.53;;;5.95;70.44
62895;BME280;49204;44.916;37.998;2023-02-18T02:21:57;101605.94;;;5.95;70.42
62895;BME280;49204;44.916;37.998;2023-02-18T02:29:50;101604.64;;;5.95;69.77
62895;BME280;49204;44.916;37.998;2023-02-18T02:38:00;101597.69;;;5.95;69.65
62895;BME280;49204;44.916;37.998;2023-02-18T02:43:35;101593.34;;;5.96;69.57
62895;BME280;49204;44.916;37.998;2023-02-18T02:46:01;101598.58;;;5.96;69.27
62895;BME280;49204;44.916;37.998;2023-02-18T02:48:34;101598.10;;;5.95;69.24
62895;BME280;49204;44.916;37.998;2023-02-18T02:51:03;101595.07;;;5.95;69.18
62895;BME280;49204;44.916;37.998;2023-02-18T02:53:30;101594.18;;;5.95;69.07
62895;BME280;49204;44.916;37.998;2023-02-18T02:55:58;101595.96;;;5.96;68.84
62895;BME280;49204;44.916;37.998;2023-02-18T02:58:27;101579.80;;;5.95;68.68
62895;BME280;49204;44.916;37.998;2023-02-18T03:03:38;101592.02;;;5.93;68.58
62895;BME280;49204;44.916;37.998;2023-02-18T03:08:39;101595.08;;;5.92;68.16
62895;BME280;49204;44.916;37.998;2023-02-18T03:11:08;101601.61;;;5.92;68.03
62895;BME280;49204;44.916;37.998;2023-02-18T03:13:46;101599.41;;;5.92;68.10
62895;BME280;49204;44.916;37.998;2023-02-18T03:16:20;101599.87;;;5.88;68.13
62895;BME280;49204;44.916;37.998;2023-02-18T03:19:19;101598.59;;;5.87;68.14
62895;BME280;49204;44.916;37.998;2023-02-18T03:21:28;101597.30;;;5.85;68.01
62895;BME280;49204;44.916;37.998;2023-02-18T03:24:07;101595.13;;;5.85;68.13
62895;BME280;49204;44.916;37.998;2023-02-18T03:26:35;101582.06;;;5.83;68.06
62895;BME280;49204;44.916;37.998;2023-02-18T03:29:05;101589.05;;;5.81;67.98
62895;BME280;49204;44.916;37.998;2023-02-18T03:31:35;101585.14;;;5.76;67.81
62895;BME280;49204;44.916;37.998;2023-02-18T03:34:12;101586.04;;;5.74;67.91
62895;BME280;49204;44.916;37.998;2023-02-18T03:36:41;101587.31;;;5.75;67.96
62895;BME280;49204;44.916;37.998;2023-02-18T03:39:18;101589.06;;;5.76;68.01
62895;BME280;49204;44.916;37.998;2023-02-18T03:41:40;101595.14;;;5.77;67.94
62895;BME280;49204;44.916;37.998;2023-02-18T03:44:09;101599.06;;;5.77;67.96
62895;BME280;49204;44.916;37.998;2023-02-18T03:46:38;101591.67;;;5.76;67.89
62895;BME280;49204;44.916;37.998;2023-02-18T03:49:06;101589.06;;;5.73;67.91
62895;BME280;49204;44.916;37.998;2023-02-18T03:51:34;101581.27;;;5.70;67.90
62895;BME280;49204;44.916;37.998;2023-02-18T03:54:04;101589.97;;;5.69;67.94
62895;BME280;49204;44.916;37.998;2023-02-18T03:56:32;101591.72;;;5.69;67.87
62895;BME280;49204;44.916;37.998;2023-02-18T03:59:00;101588.25;;;5.67;67.63
62895;BME280;49204;44.916;37.998;2023-02-18T04:01:28;101589.11;;;5.64;67.76
62895;BME280;49204;44.916;37.998;2023-02-18T04:03:56;101580.00;;;5.63;67.66
62895;BME280;49204;44.916;37.998;2023-02-18T04:06:24;101588.25;;;5.64;67.42
62895;BME280;49204;44.916;37.998;2023-02-18T04:08:52;101588.25;;;5.64;67.37
62895;BME280;49204;44.916;37.998;2023-02-18T04:11:19;101593.03;;;5.64;67.32
62895;BME280;49204;44.916;37.998;2023-02-18T04:13:47;101588.25;;;5.62;67.14
62895;BME280;49204;44.916;37.998;2023-02-18T04:16:15;101584.79;;;5.58;67.20
62895;BME280;49204;44.916;37.998;2023-02-18T04:18:43;101574.34;;;5.57;67.17
62895;BME280;49204;44.916;37.998;2023-02-18T04:21:10;101576.09;;;5.56;67.07
62895;BME280;49204;44.916;37.998;2023-02-18T04:23:38;101576.98;;;5.55;67.08
62895;BME280;49204;44.916;37.998;2023-02-18T04:26:06;101576.13;;;5.52;67.04
62895;BME280;49204;44.916;37.998;2023-02-18T04:28:33;101570.47;;;5.48;67.07
62895;BME280;49204;44.916;37.998;2023-02-18T04:31:03;101573.97;;;5.45;67.12
62895;BME280;49204;44.916;37.998;2023-02-18T04:33:31;101572.70;;;5.40;67.15
62895;BME280;49204;44.916;37.998;2023-02-18T04:35:58;101570.09;;;5.37;67.13
62895;BME280;49204;44.916;37.998;2023-02-18T04:38:26;101579.68;;;5.37;67.20
62895;BME280;49204;44.916;37.998;2023-02-18T04:40:54;101578.38;;;5.35;67.22
62895;BME280;49204;44.916;37.998;2023-02-18T04:43:21;101585.77;;;5.34;67.19
62895;BME280;49204;44.916;37.998;2023-02-18T04:45:49;101576.63;;;5.34;67.21
62895;BME280;49204;44.916;37.998;2023-02-18T04:48:17;101580.55;;;5.34;67.21
62895;BME280;49204;44.916;37.998;2023-02-18T04:50:45;101578.38;;;5.35;67.21
62895;BME280;49204;44.916;37.998;2023-02-18T04:53:12;101585.77;;;5.37;67.17
62895;BME280;49204;44.916;37.998;2023-02-18T04:55:40;101589.68;;;5.39;67.16
62895;BME280;49204;44.916;37.998;2023-02-18T04:58:08;101590.09;;;5.38;67.18
62895;BME280;49204;44.916;37.998;2023-02-18T05:00:36;101594.01;;;5.43;67.20
62895;BME280;49204;44.916;37.998;2023-02-18T05:03:03;101590.95;;;5.47;67.15
62895;BME280;49204;44.916;37.998;2023-02-18T05:05:32;101586.58;;;5.49;67.10
62895;BME280;49204;44.916;37.998;2023-02-18T05:08:01;101585.72;;;5.50;67.09
62895;BME280;49204;44.916;37.998;2023-02-18T05:10:29;101585.72;;;5.50;67.05
62895;BME280;49204;44.916;37.998;2023-02-18T05:12:57;101583.52;;;5.54;67.04
62895;BME280;49204;44.916;37.998;2023-02-18T05:15:25;101583.07;;;5.56;67.04
62895;BME280;49204;44.916;37.998;2023-02-18T05:17:53;101584.79;;;5.58;67.05
62895;BME280;49204;44.916;37.998;2023-02-18T05:20:20;101588.30;;;5.59;67.02
62895;BME280;49204;44.916;37.998;2023-02-18T05:22:48;101585.64;;;5.64;66.99
62895;BME280;49204;44.916;37.998;2023-02-18T05:25:16;101587.35;;;5.69;67.02
62895;BME280;49204;44.916;37.998;2023-02-18T05:27:44;101588.61;;;5.78;66.96
62895;BME280;49204;44.916;37.998;2023-02-18T05:30:11;101585.09;;;5.86;66.93
62895;BME280;49204;44.916;37.998;2023-02-18T05:32:39;101589.84;;;5.94;66.93
62895;BME280;49204;44.916;37.998;2023-02-18T05:35:07;101586.31;;;6.03;66.90
62895;BME280;49204;44.916;37.998;2023-02-18T05:37:35;101587.89;;;6.25;66.85
62895;BME280;49204;44.916;37.998;2023-02-18T05:40:03;101590.35;;;6.45;66.74
62895;BME280;49204;44.916;37.998;2023-02-18T05:42:31;101585.95;;;6.50;66.64
62895;BME280;49204;44.916;37.998;2023-02-18T05:44:59;101584.65;;;6.50;66.57
62895;BME280;49204;44.916;37.998;2023-02-18T05:47:27;101578.95;;;6.52;66.54
62895;BME280;49204;44.916;37.998;2023-02-18T05:49:54;101577.19;;;6.54;66.55
62895;BME280;49204;44.916;37.998;2023-02-18T05:52:22;101572.40;;;6.55;66.55
62895;BME280;49204;44.916;37.998;2023-02-18T05:54:50;101576.73;;;6.56;66.41
62895;BME280;49204;44.916;37.998;2023-02-18T05:57:18;101572.34;;;6.60;66.25
62895;BME280;49204;44.916;37.998;2023-02-18T05:59:47;101572.80;;;6.58;66.13
62895;BME280;49204;44.916;37.998;2023-02-18T06:02:14;101564.47;;;6.63;66.12
62895;BME280;49204;44.916;37.998;2023-02-18T06:04:42;101556.13;;;6.70;66.01
62895;BME280;49204;44.916;37.998;2023-02-18T06:07:10;101545.59;;;6.76;65.85
62895;BME280;49204;44.916;37.998;2023-02-18T06:09:38;101551.58;;;6.87;65.75
62895;BME280;49204;44.916;37.998;2023-02-18T06:12:05;101547.88;;;7.43;65.96
62895;BME280;49204;44.916;37.998;2023-02-18T06:14:33;101542.06;;;7.83;65.11
62895;BME280;49204;44.916;37.998;2023-02-18T06:17:01;101528.83;;;8.20;64.71
62895;BME280;49204;44.916;37.998;2023-02-18T06:19:29;101532.67;;;8.52;64.35
62895;BME280;49204;44.916;37.998;2023-02-18T06:21:56;101528.94;;;8.65;64.26
62895;BME280;49204;44.916;37.998;2023-02-18T06:24:24;101528.08;;;9.11;64.20
62895;BME280;49204;44.916;37.998;2023-02-18T06:26:52;101517.80;;;9.60;62.19
62895;BME280;49204;44.916;37.998;2023-02-18T06:29:20;101519.88;;;9.65;61.40
62895;BME280;49204;44.916;37.998;2023-02-18T06:31:47;101524.84;;;10.15;61.34
62895;BME280;49204;44.916;37.998;2023-02-18T06:34:15;101525.88;;;11.25;61.46
62895;BME280;49204;44.916;37.998;2023-02-18T06:36:43;101534.37;;;11.79;61.15
62895;BME280;49204;44.916;37.998;2023-02-18T06:39:10;101541.27;;;11.98;61.31
62895;BME280;49204;44.916;37.998;2023-02-18T06:41:38;101541.18;;;11.86;61.03
62895;BME280;49204;44.916;37.998;2023-02-18T06:44:06;101538.49;;;11.73;61.04
62895;BME280;49204;44.916;37.998;2023-02-18T06:46:34;101537.91;;;11.78;60.59
62895;BME280;49204;44.916;37.998;2023-02-18T06:49:02;101551.48;;;11.95;60.32
62895;BME280;49204;44.916;37.998;2023-02-18T06:51:30;101544.37;;;11.97;59.74
62895;BME280;49204;44.916;37.998;2023-02-18T06:53:57;101541.43;;;11.93;57.48
62895;BME280;49204;44.916;37.998;2023-02-18T06:56:25;101544.70;;;11.72;56.64
62895;BME280;49204;44.916;37.998;2023-02-18T06:58:53;101546.90;;;11.43;56.45
62895;BME280;49204;44.916;37.998;2023-02-18T07:01:21;101542.50;;;11.12;56.52
62895;BME280;49204;44.916;37.998;2023-02-18T07:03:48;101550.50;;;11.40;56.96
62895;BME280;49204;44.916;37.998;2023-02-18T07:06:16;101539.95;;;11.55;55.37
62895;BME280;49204;44.916;37.998;2023-02-18T07:08:44;101546.27;;;11.49;54.35
62895;BME280;49204;44.916;37.998;2023-02-18T07:11:12;101543.02;;;11.54;53.99
62895;BME280;49204;44.916;37.998;2023-02-18T07:13:39;101541.05;;;11.91;52.81
62895;BME280;49204;44.916;37.998;2023-02-18T07:16:07;101525.59;;;11.93;52.92
62895;BME280;49204;44.916;37.998;2023-02-18T07:18:35;101528.55;;;12.38;52.72
62895;BME280;49204;44.916;37.998;2023-02-18T07:21:03;101513.51;;;13.13;51.64
62895;BME280;49204;44.916;37.998;2023-02-18T07:23:31;101518.37;;;13.12;50.45
62895;BME280;49204;44.916;37.998;2023-02-18T07:26:02;101520.52;;;13.03;48.52
62895;BME280;49204;44.916;37.998;2023-02-18T07:28:30;101498.02;;;12.91;49.02
62895;BME280;49204;44.916;37.998;2023-02-18T07:30:58;101504.95;;;13.19;48.13
62895;BME280;49204;44.916;37.998;2023-02-18T07:33:26;101496.80;;;13.59;47.62
62895;BME280;49204;44.916;37.998;2023-02-18T07:35:54;101490.87;;;13.64;47.82
62895;BME280;49204;44.916;37.998;2023-02-18T07:38:22;101479.06;;;13.50;48.16
62895;BME280;49204;44.916;37.998;2023-02-18T07:40:51;101475.34;;;12.97;47.94
62895;BME280;49204;44.916;37.998;2023-02-18T07:43:18;101483.84;;;12.31;48.84
62895;BME280;49204;44.916;37.998;2023-02-18T07:45:46;101475.05;;;11.77;49.52
62895;BME280;49204;44.916;37.998;2023-02-18T07:48:14;101464.92;;;11.35;50.41
62895;BME280;49204;44.916;37.998;2023-02-18T07:50:43;101461.18;;;11.14;51.42
62895;BME280;49204;44.916;37.998;2023-02-18T07:53:12;101468.88;;;10.76;51.90
62895;BME280;49204;44.916;37.998;2023-02-18T07:55:40;101487.85;;;10.72;52.37
62895;BME280;49204;44.916;37.998;2023-02-18T07:58:24;101479.53;;;10.55;52.55
62895;BME280;49204;44.916;37.998;2023-02-18T08:00:52;101476.74;;;10.27;53.24
62895;BME280;49204;44.916;37.998;2023-02-18T08:03:22;101485.66;;;10.21;53.93
62895;BME280;49204;44.916;37.998;2023-02-18T08:05:50;101450.10;;;10.40;53.54
62895;BME280;49204;44.916;37.998;2023-02-18T08:08:19;101479.09;;;11.03;52.40
62895;BME280;49204;44.916;37.998;2023-02-18T08:10:47;101463.23;;;11.19;51.16
62895;BME280;49204;44.916;37.998;2023-02-18T08:13:16;101447.17;;;11.55;50.42
62895;BME280;49204;44.916;37.998;2023-02-18T08:15:44;101445.13;;;12.05;49.44
62895;BME280;49204;44.916;37.998;2023-02-18T08:18:18;101441.52;;;12.08;49.45
62895;BME280;49204;44.916;37.998;2023-02-18T08:20:47;101408.05;;;12.47;47.86
62895;BME280;49204;44.916;37.998;2023-02-18T08:23:15;101450.78;;;12.33;48.54
62895;BME280;49204;44.916;37.998;2023-02-18T08:25:46;101448.33;;;12.02;48.95
62895;BME280;49204;44.916;37.998;2023-02-18T08:28:15;101445.67;;;11.75;49.83
62895;BME280;49204;44.916;37.998;2023-02-18T08:30:43;101447.64;;;11.68;50.28
62895;BME280;49204;44.916;37.998;2023-02-18T08:33:12;101422.36;;;11.74;50.03
62895;BME280;49204;44.916;37.998;2023-02-18T08:35:40;101457.30;;;11.69;49.93
62895;BME280;49204;44.916;37.998;2023-02-18T08:38:08;101429.44;;;12.14;49.69
62895;BME280;49204;44.916;37.998;2023-02-18T08:40:36;101430.37;;;12.50;48.71
62895;BME280;49204;44.916;37.998;2023-02-18T08:43:04;101421.78;;;12.92;47.95
62895;BME280;49204;44.916;37.998;2023-02-18T08:45:31;101413.90;;;12.55;48.72
62895;BME280;49204;44.916;37.998;2023-02-18T08:47:59;101411.07;;;11.84;49.33
62895;BME280;49204;44.916;37.998;2023-02-18T08:50:27;101395.84;;;10.96;50.78
62895;BME280;49204;44.916;37.998;2023-02-18T08:52:55;101412.89;;;10.36;52.58
62895;BME280;49204;44.916;37.998;2023-02-18T08:55:25;101389.09;;;10.07;53.84
62895;BME280;49204;44.916;37.998;2023-02-18T08:57:53;101399.86;;;9.97;54.64
62895;BME280;49204;44.916;37.998;2023-02-18T09:00:21;101389.44;;;10.43;54.31
62895;BME280;49204;44.916;37.998;2023-02-18T09:02:49;101384.20;;;10.73;53.66
62895;BME280;49204;44.916;37.998;2023-02-18T09:05:16;101380.09;;;10.79;53.82
62895;BME280;49204;44.916;37.998;2023-02-18T09:07:44;101389.70;;;11.38;52.60
62895;BME280;49204;44.916;37.998;2023-02-18T09:10:12;101363.45;;;11.87;50.51
62895;BME280;49204;44.916;37.998;2023-02-18T09:12:40;101369.97;;;11.77;50.91
62895;BME280;49204;44.916;37.998;2023-02-18T09:15:08;101357.67;;;11.23;51.50
62895;BME280;49204;44.916;37.998;2023-02-18T09:17:36;101364.78;;;11.34;52.13
62895;BME280;49204;44.916;37.998;2023-02-18T09:20:04;101355.88;;;11.38;51.75
62895;BME280;49204;44.916;37.998;2023-02-18T09:22:32;101349.92;;;11.58;51.15
62895;BME280;49204;44.916;37.998;2023-02-18T09:24:59;101360.52;;;11.83;50.16
62895;BME280;49204;44.916;37.998;2023-02-18T09:27:27;101349.88;;;11.59;50.30
62895;BME280;49204;44.916;37.998;2023-02-18T09:29:55;101344.97;;;11.87;50.36
62895;BME280;49204;44.916;37.998;2023-02-18T09:32:22;101339.45;;;11.82;49.77
62895;BME280;49204;44.916;37.998;2023-02-18T09:34:50;101305.59;;;11.56;50.35
62895;BME280;49204;44.916;37.998;2023-02-18T09:37:18;101306.02;;;11.30;51.08
62895;BME280;49204;44.916;37.998;2023-02-18T09:39:46;101319.45;;;11.23;51.47
62895;BME280;49204;44.916;37.998;2023-02-18T09:42:15;101313.16;;;11.27;51.62
62895;BME280;49204;44.916;37.998;2023-02-18T09:44:48;101304.95;;;11.23;52.03
62895;BME280;49204;44.916;37.998;2023-02-18T09:47:17;101319.66;;;11.30;51.92
62895;BME280;49204;44.916;37.998;2023-02-18T09:49:51;101302.53;;;11.16;52.06
62895;BME280;49204;44.916;37.998;2023-02-18T09:54:43;101287.82;;;11.09;52.15
62895;BME280;49204;44.916;37.998;2023-02-18T09:57:25;101289.69;;;11.06;52.50
62895;BME280;49204;44.916;37.998;2023-02-18T09:59:56;101288.54;;;10.86;52.74
62895;BME280;49204;44.916;37.998;2023-02-18T10:02:24;101264.03;;;10.56;52.93
62895;BME280;49204;44.916;37.998;2023-02-18T10:04:52;101277.17;;;10.26;53.21
62895;BME280;49204;44.916;37.998;2023-02-18T10:07:26;101277.88;;;10.01;53.63
62895;BME280;49204;44.916;37.998;2023-02-18T10:09:51;101261.01;;;9.92;54.05
62895;BME280;49204;44.916;37.998;2023-02-18T10:12:22;101266.17;;;10.12;53.62
62895;BME280;49204;44.916;37.998;2023-02-18T10:14:51;101240.91;;;10.21;53.19
62895;BME280;49204;44.916;37.998;2023-02-18T10:17:20;101264.16;;;10.36;53.04
62895;BME280;49204;44.916;37.998;2023-02-18T10:19:49;101226.16;;;10.30;52.65
62895;BME280;49204;44.916;37.998;2023-02-18T10:22:18;101253.75;;;10.17;52.91
62895;BME280;49204;44.916;37.998;2023-02-18T10:24:53;101255.61;;;10.13;53.03
62895;BME280;49204;44.916;37.998;2023-02-18T10:27:27;101242.25;;;10.04;53.02
62895;BME280;49204;44.916;37.998;2023-02-18T10:30:02;101237.76;;;9.93;53.54
62895;BME280;49204;44.916;37.998;2023-02-18T10:32:27;101235.46;;;9.81;53.54
62895;BME280;49204;44.916;37.998;2023-02-18T10:37:40;101251.60;;;9.69;53.60
62895;BME280;49204;44.916;37.998;2023-02-18T10:40:08;101263.50;;;9.65;53.84
62895;BME280;49204;44.916;37.998;2023-02-18T10:42:45;101229.11;;;9.57;54.13
62895;BME280;49204;44.916;37.998;2023-02-18T10:48:12;101196.92;;;9.49;54.45
62895;BME280;49204;44.916;37.998;2023-02-18T10:52:56;101223.27;;;9.29;55.80
62895;BME280;49204;44.916;37.998;2023-02-18T10:55:41;101145.00;;;9.24;56.13
62895;BME280;49204;44.916;37.998;2023-02-18T10:58:45;101216.09;;;9.19;56.42
62895;BME280;49204;44.916;37.998;2023-02-18T11:00:44;101211.33;;;9.17;56.77
62895;BME280;49204;44.916;37.998;2023-02-18T11:03:14;101192.41;;;9.21;56.62
62895;BME280;49204;44.916;37.998;2023-02-18T11:05:42;101199.33;;;9.23;56.57
62895;BME280;49204;44.916;37.998;2023-02-18T11:08:18;101207.31;;;9.20;56.69
62895;BME280;49204;44.916;37.998;2023-02-18T11:10:41;101185.84;;;9.21;56.89
62895;BME280;49204;44.916;37.998;2023-02-18T11:13:11;101226.27;;;9.15;57.09
62895;BME280;49204;44.916;37.998;2023-02-18T11:15:52;101188.80;;;9.07;56.95
62895;BME280;49204;44.916;37.998;2023-02-18T11:18:13;101213.86;;;9.04;57.38
62895;BME280;49204;44.916;37.998;2023-02-18T11:20:42;101238.45;;;9.00;57.37
62895;BME280;49204;44.916;37.998;2023-02-18T11:25:40;101186.64;;;8.88;57.43
62895;BME280;49204;44.916;37.998;2023-02-18T11:30:45;101199.87;;;8.85;57.55
62895;BME280;49204;44.916;37.998;2023-02-18T11:35:52;101177.98;;;8.85;57.59
62895;BME280;49204;44.916;37.998;2023-02-18T11:38:24;101175.81;;;8.84;58.06
62895;BME280;49204;44.916;37.998;2023-02-18T11:40:52;101177.58;;;8.84;58.12
62895;BME280;49204;44.916;37.998;2023-02-18T11:43:15;101156.67;;;8.79;58.12
62895;BME280;49204;44.916;37.998;2023-02-18T11:45:44;101123.36;;;8.81;58.26
62895;BME280;49204;44.916;37.998;2023-02-18T11:50:42;101145.94;;;8.88;58.12
62895;BME280;49204;44.916;37.998;2023-02-18T11:53:30;101145.91;;;8.90;58.24
62895;BME280;49204;44.916;37.998;2023-02-18T11:55:43;101143.08;;;8.98;58.26
62895;BME280;49204;44.916;37.998;2023-02-18T11:58:11;101148.52;;;9.08;58.25
62895;BME280;49204;44.916;37.998;2023-02-18T12:00:41;101115.75;;;9.21;58.14
62895;BME280;49204;44.916;37.998;2023-02-18T12:06:02;101133.07;;;9.28;57.67
62895;BME280;49204;44.916;37.998;2023-02-18T12:08:26;101128.92;;;9.20;57.94
62895;BME280;49204;44.916;37.998;2023-02-18T12:10:54;101112.02;;;9.14;58.52
62895;BME280;49204;44.916;37.998;2023-02-18T12:13:24;101120.93;;;9.08;59.14
62895;BME280;49204;44.916;37.998;2023-02-18T12:15:55;101096.15;;;9.02;59.56
62895;BME280;49204;44.916;37.998;2023-02-18T12:21:08;101102.40;;;8.96;60.96
62895;BME280;49204;44.916;37.998;2023-02-18T12:26:23;101108.23;;;8.75;62.07
62895;BME280;49204;44.916;37.998;2023-02-18T12:29:05;101025.81;;;8.64;62.50
62895;BME280;49204;44.916;37.998;2023-02-18T12:39:44;101111.80;;;8.15;64.23
62895;BME280;49204;44.916;37.998;2023-02-18T12:42:25;101102.31;;;8.09;65.03
62895;BME280;49204;44.916;37.998;2023-02-18T12:55:57;101078.70;;;7.91;64.71
62895;BME280;49204;44.916;37.998;2023-02-18T13:08:41;101078.52;;;7.80;65.23
62895;BME280;49204;44.916;37.998;2023-02-18T13:13:37;101043.14;;;7.60;66.75
62895;BME280;49204;44.916;37.998;2023-02-18T13:16:08;101061.11;;;7.56;67.40
62895;BME280;49204;44.916;37.998;2023-02-18T13:18:41;101045.81;;;7.57;68.09
62895;BME280;49204;44.916;37.998;2023-02-18T13:21:08;101034.84;;;7.59;67.95
62895;BME280;49204;44.916;37.998;2023-02-18T13:23:38;101038.72;;;7.62;68.35
62895;BME280;49204;44.916;37.998;2023-02-18T13:26:06;101034.81;;;7.61;68.32
62895;BME280;49204;44.916;37.998;2023-02-18T13:28:37;101010.77;;;7.61;68.54
62895;BME280;49204;44.916;37.998;2023-02-18T13:31:29;101010.86;;;7.58;69.41
62895;BME280;49204;44.916;37.998;2023-02-18T13:39:15;100996.52;;;7.34;71.54
62895;BME280;49204;44.916;37.998;2023-02-18T13:41:41;101017.27;;;7.24;72.60
62895;BME280;49204;44.916;37.998;2023-02-18T13:44:36;101013.84;;;7.20;73.48
62895;BME280;49204;44.916;37.998;2023-02-18T13:46:50;101009.48;;;7.19;73.76
62895;BME280;49204;44.916;37.998;2023-02-18T13:49:21;101017.41;;;7.18;74.33
62895;BME280;49204;44.916;37.998;2023-02-18T13:51:45;100999.13;;;7.14;74.52
62895;BME280;49204;44.916;37.998;2023-02-18T13:54:19;100995.22;;;7.13;75.34
62895;BME280;49204;44.916;37.998;2023-02-18T13:56:54;100984.77;;;7.11;76.08
62895;BME280;49204;44.916;37.998;2023-02-18T13:59:17;100985.23;;;7.11;75.82
62895;BME280;49204;44.916;37.998;2023-02-18T14:01:46;100977.80;;;7.12;76.25
62895;BME280;49204;44.916;37.998;2023-02-18T14:09:46;100939.83;;;7.12;76.14
62895;BME280;49204;44.916;37.998;2023-02-18T14:13:01;100978.20;;;7.13;76.09
62895;BME280;49204;44.916;37.998;2023-02-18T14:14:43;100963.40;;;7.12;76.10
62895;BME280;49204;44.916;37.998;2023-02-18T14:19:58;100981.27;;;7.12;75.61
62895;BME280;49204;44.916;37.998;2023-02-18T14:25:15;100974.33;;;7.10;75.93
62895;BME280;49204;44.916;37.998;2023-02-18T14:27:32;100957.81;;;7.06;76.07
62895;BME280;49204;44.916;37.998;2023-02-18T14:30:04;100970.14;;;7.03;76.72
62895;BME280;49204;44.916;37.998;2023-02-18T14:32:33;100944.38;;;7.02;76.79
62895;BME280;49204;44.916;37.998;2023-02-18T14:35:19;100937.84;;;7.02;76.77